sensor_id;sensor_type;location;lat;lon;timestamp;P1;durP1;ratioP1;P2;durP2;ratioP2
10904;SDS011;5505;51.450;9.254;2023-08-06T00:01:48;4.77;;;4.27;;
10904;SDS011;5505;51.450;9.254;2023-08-06T00:04:37;4.50;;;4.10;;
10904;SDS011;5505;51.450;9.254;2023-08-06T00:07:23;4.17;;;3.80;;
10904;SDS011;5505;51.450;9.254;2023-08-06T00:10:10;4.17;;;3.70;;
10904;SDS011;5505;51.450;9.254;2023-08-06T00:12:57;4.57;;;3.60;;
10904;SDS011;5505;51.450;9.254;2023-08-06T00:15:44;4.63;;;3.27;;
10904;SDS011;5505;51.450;9.254;2023-08-06T00:18:30;3.90;;;3.50;;
10904;SDS011;5505;51.450;9.254;2023-08-06T00:21:18;5.80;;;3.60;;
10904;SDS011;5505;51.450;9.254;2023-08-06T00:24:05;4.93;;;3.50;;
10904;SDS011;5505;51.450;9.254;2023-08-06T00:26:52;3.70;;;3.40;;
10904;SDS011;5505;51.450;9.254;2023-08-06T00:29:39;3.80;;;3.40;;
10904;SDS011;5505;51.450;9.254;2023-08-06T00:32:26;5.43;;;3.47;;
10904;SDS011;5505;51.450;9.254;2023-08-06T00:35:12;4.23;;;3.83;;
10904;SDS011;5505;51.450;9.254;2023-08-06T00:38:00;9.00;;;3.60;;
10904;SDS011;5505;51.450;9.254;2023-08-06T00:40:47;5.90;;;3.90;;
10904;SDS011;5505;51.450;9.254;2023-08-06T00:43:34;5.50;;;3.73;;
10904;SDS011;5505;51.450;9.254;2023-08-06T00:46:21;8.27;;;4.23;;
10904;SDS011;5505;51.450;9.254;2023-08-06T00:49:07;4.40;;;4.00;;
10904;SDS011;5505;51.450;9.254;2023-08-06T00:51:54;4.10;;;3.70;;
10904;SDS011;5505;51.450;9.254;2023-08-06T00:54:44;5.27;;;3.83;;
10904;SDS011;5505;51.450;9.254;2023-08-06T00:57:31;4.33;;;3.93;;
10904;SDS011;5505;51.450;9.254;2023-08-06T01:00:18;4.57;;;3.93;;
10904;SDS011;5505;51.450;9.254;2023-08-06T01:03:05;5.27;;;3.97;;
10904;SDS011;5505;51.450;9.254;2023-08-06T01:05:52;5.47;;;3.90;;
10904;SDS011;5505;51.450;9.254;2023-08-06T01:08:40;6.53;;;3.80;;
10904;SDS011;5505;51.450;9.254;2023-08-06T01:11:37;4.50;;;3.73;;
10904;SDS011;5505;51.450;9.254;2023-08-06T01:14:32;6.10;;;3.87;;
10904;SDS011;5505;51.450;9.254;2023-08-06T01:17:23;4.37;;;3.67;;
10904;SDS011;5505;51.450;9.254;2023-08-06T01:20:11;5.80;;;3.83;;
10904;SDS011;5505;51.450;9.254;2023-08-06T01:22:59;4.30;;;3.37;;
10904;SDS011;5505;51.450;9.254;2023-08-06T01:25:48;4.20;;;3.50;;
10904;SDS011;5505;51.450;9.254;2023-08-06T01:28:44;3.57;;;3.20;;
10904;SDS011;5505;51.450;9.254;2023-08-06T01:31:41;3.70;;;3.13;;
10904;SDS011;5505;51.450;9.254;2023-08-06T01:34:31;4.07;;;3.20;;
10904;SDS011;5505;51.450;9.254;2023-08-06T01:37:20;6.00;;;2.80;;
10904;SDS011;5505;51.450;9.254;2023-08-06T01:40:08;8.60;;;2.67;;
10904;SDS011;5505;51.450;9.254;2023-08-06T01:42:56;3.07;;;2.53;;
10904;SDS011;5505;51.450;9.254;2023-08-06T01:45:43;4.97;;;3.07;;
10904;SDS011;5505;51.450;9.254;2023-08-06T01:48:30;7.27;;;3.30;;
10904;SDS011;5505;51.450;9.254;2023-08-06T01:51:17;3.63;;;2.63;;
10904;SDS011;5505;51.450;9.254;2023-08-06T01:54:03;3.13;;;2.33;;
10904;SDS011;5505;51.450;9.254;2023-08-06T01:56:52;2.40;;;2.17;;
10904;SDS011;5505;51.450;9.254;2023-08-06T01:59:38;3.40;;;2.40;;
10904;SDS011;5505;51.450;9.254;2023-08-06T02:02:25;2.60;;;2.20;;
10904;SDS011;5505;51.450;9.254;2023-08-06T02:05:12;4.13;;;2.60;;
10904;SDS011;5505;51.450;9.254;2023-08-06T02:07:59;3.67;;;2.20;;
10904;SDS011;5505;51.450;9.254;2023-08-06T02:10:46;7.93;;;2.60;;
10904;SDS011;5505;51.450;9.254;2023-08-06T02:13:34;3.30;;;2.30;;
10904;SDS011;5505;51.450;9.254;2023-08-06T02:16:21;2.20;;;2.10;;
10904;SDS011;5505;51.450;9.254;2023-08-06T02:19:08;2.30;;;2.10;;
10904;SDS011;5505;51.450;9.254;2023-08-06T02:21:55;2.80;;;2.00;;
10904;SDS011;5505;51.450;9.254;2023-08-06T02:24:41;2.90;;;2.07;;
10904;SDS011;5505;51.450;9.254;2023-08-06T02:27:28;2.40;;;2.20;;
10904;SDS011;5505;51.450;9.254;2023-08-06T02:30:16;2.30;;;2.10;;
10904;SDS011;5505;51.450;9.254;2023-08-06T02:33:03;5.60;;;2.37;;
10904;SDS011;5505;51.450;9.254;2023-08-06T02:35:50;5.30;;;2.57;;
10904;SDS011;5505;51.450;9.254;2023-08-06T02:38:37;5.97;;;2.90;;
10904;SDS011;5505;51.450;9.254;2023-08-06T02:41:23;5.63;;;2.53;;
10904;SDS011;5505;51.450;9.254;2023-08-06T02:44:10;5.00;;;2.53;;
10904;SDS011;5505;51.450;9.254;2023-08-06T02:46:58;3.00;;;2.50;;
10904;SDS011;5505;51.450;9.254;2023-08-06T02:49:45;4.00;;;3.00;;
10904;SDS011;5505;51.450;9.254;2023-08-06T02:52:32;5.47;;;3.00;;
10904;SDS011;5505;51.450;9.254;2023-08-06T02:55:19;7.20;;;2.90;;
10904;SDS011;5505;51.450;9.254;2023-08-06T02:58:06;4.23;;;2.20;;
10904;SDS011;5505;51.450;9.254;2023-08-06T03:00:59;2.70;;;2.50;;
10904;SDS011;5505;51.450;9.254;2023-08-06T03:03:49;3.57;;;2.70;;
10904;SDS011;5505;51.450;9.254;2023-08-06T03:06:35;3.30;;;2.80;;
10904;SDS011;5505;51.450;9.254;2023-08-06T03:09:22;4.07;;;3.00;;
10904;SDS011;5505;51.450;9.254;2023-08-06T03:12:09;2.97;;;2.70;;
10904;SDS011;5505;51.450;9.254;2023-08-06T03:14:56;2.73;;;2.53;;
10904;SDS011;5505;51.450;9.254;2023-08-06T03:17:42;3.77;;;3.03;;
10904;SDS011;5505;51.450;9.254;2023-08-06T03:20:31;3.13;;;2.60;;
10904;SDS011;5505;51.450;9.254;2023-08-06T03:23:18;3.70;;;2.37;;
10904;SDS011;5505;51.450;9.254;2023-08-06T03:26:05;5.10;;;2.57;;
10904;SDS011;5505;51.450;9.254;2023-08-06T03:28:51;5.07;;;2.80;;
10904;SDS011;5505;51.450;9.254;2023-08-06T03:31:38;2.50;;;2.30;;
10904;SDS011;5505;51.450;9.254;2023-08-06T03:34:25;3.87;;;2.47;;
10904;SDS011;5505;51.450;9.254;2023-08-06T03:37:13;3.63;;;2.73;;
10904;SDS011;5505;51.450;9.254;2023-08-06T03:40:00;4.83;;;2.43;;
10904;SDS011;5505;51.450;9.254;2023-08-06T03:42:47;3.60;;;2.70;;
10904;SDS011;5505;51.450;9.254;2023-08-06T03:45:34;2.80;;;2.40;;
10904;SDS011;5505;51.450;9.254;2023-08-06T03:48:21;5.27;;;2.47;;
10904;SDS011;5505;51.450;9.254;2023-08-06T03:51:08;5.27;;;3.03;;
10904;SDS011;5505;51.450;9.254;2023-08-06T03:53:56;4.03;;;2.70;;
10904;SDS011;5505;51.450;9.254;2023-08-06T03:56:43;3.47;;;2.90;;
10904;SDS011;5505;51.450;9.254;2023-08-06T03:59:29;2.93;;;2.73;;
10904;SDS011;5505;51.450;9.254;2023-08-06T04:02:16;3.90;;;3.50;;
10904;SDS011;5505;51.450;9.254;2023-08-06T04:05:03;3.40;;;3.17;;
10904;SDS011;5505;51.450;9.254;2023-08-06T04:07:50;3.50;;;3.20;;
10904;SDS011;5505;51.450;9.254;2023-08-06T04:10:39;3.63;;;3.33;;
10904;SDS011;5505;51.450;9.254;2023-08-06T04:13:26;3.27;;;3.00;;
10904;SDS011;5505;51.450;9.254;2023-08-06T04:16:13;3.30;;;3.00;;
10904;SDS011;5505;51.450;9.254;2023-08-06T04:19:00;3.60;;;3.30;;
10904;SDS011;5505;51.450;9.254;2023-08-06T04:21:46;4.60;;;3.00;;
10904;SDS011;5505;51.450;9.254;2023-08-06T04:24:33;4.10;;;3.13;;
10904;SDS011;5505;51.450;9.254;2023-08-06T04:27:21;3.07;;;2.87;;
10904;SDS011;5505;51.450;9.254;2023-08-06T04:30:08;3.13;;;2.90;;
10904;SDS011;5505;51.450;9.254;2023-08-06T04:32:57;3.23;;;2.80;;
10904;SDS011;5505;51.450;9.254;2023-08-06T04:35:44;3.00;;;2.80;;
10904;SDS011;5505;51.450;9.254;2023-08-06T04:38:31;3.10;;;2.80;;
10904;SDS011;5505;51.450;9.254;2023-08-06T04:41:17;2.83;;;2.63;;
10904;SDS011;5505;51.450;9.254;2023-08-06T04:44:06;2.90;;;2.70;;
10904;SDS011;5505;51.450;9.254;2023-08-06T04:46:52;4.97;;;2.83;;
10904;SDS011;5505;51.450;9.254;2023-08-06T04:49:39;3.33;;;3.03;;
10904;SDS011;5505;51.450;9.254;2023-08-06T04:52:26;3.17;;;2.90;;
10904;SDS011;5505;51.450;9.254;2023-08-06T04:55:13;4.00;;;3.00;;
10904;SDS011;5505;51.450;9.254;2023-08-06T04:58:00;4.23;;;2.80;;
10904;SDS011;5505;51.450;9.254;2023-08-06T05:00:48;3.43;;;3.13;;
10904;SDS011;5505;51.450;9.254;2023-08-06T05:03:35;3.43;;;2.53;;
10904;SDS011;5505;51.450;9.254;2023-08-06T05:06:22;4.63;;;3.00;;
10904;SDS011;5505;51.450;9.254;2023-08-06T05:09:08;3.63;;;2.90;;
10904;SDS011;5505;51.450;9.254;2023-08-06T05:11:55;2.83;;;2.63;;
10904;SDS011;5505;51.450;9.254;2023-08-06T05:14:42;2.80;;;2.60;;
10904;SDS011;5505;51.450;9.254;2023-08-06T05:17:30;5.90;;;2.80;;
10904;SDS011;5505;51.450;9.254;2023-08-06T05:20:17;2.90;;;2.50;;
10904;SDS011;5505;51.450;9.254;2023-08-06T05:23:03;3.17;;;2.40;;
10904;SDS011;5505;51.450;9.254;2023-08-06T05:25:50;3.43;;;2.53;;
10904;SDS011;5505;51.450;9.254;2023-08-06T05:28:37;3.10;;;2.80;;
10904;SDS011;5505;51.450;9.254;2023-08-06T05:31:24;2.80;;;2.60;;
10904;SDS011;5505;51.450;9.254;2023-08-06T05:34:12;2.60;;;2.33;;
10904;SDS011;5505;51.450;9.254;2023-08-06T05:36:59;4.03;;;2.50;;
10904;SDS011;5505;51.450;9.254;2023-08-06T05:39:45;3.00;;;2.43;;
10904;SDS011;5505;51.450;9.254;2023-08-06T05:42:32;3.20;;;2.57;;
10904;SDS011;5505;51.450;9.254;2023-08-06T05:45:19;2.80;;;2.53;;
10904;SDS011;5505;51.450;9.254;2023-08-06T05:48:06;2.87;;;2.30;;
10904;SDS011;5505;51.450;9.254;2023-08-06T05:50:54;3.93;;;2.53;;
10904;SDS011;5505;51.450;9.254;2023-08-06T05:53:41;2.47;;;2.20;;
10904;SDS011;5505;51.450;9.254;2023-08-06T05:56:27;3.10;;;2.57;;
10904;SDS011;5505;51.450;9.254;2023-08-06T05:59:14;2.60;;;2.40;;
10904;SDS011;5505;51.450;9.254;2023-08-06T06:02:01;2.57;;;2.37;;
10904;SDS011;5505;51.450;9.254;2023-08-06T06:04:48;2.60;;;2.40;;
10904;SDS011;5505;51.450;9.254;2023-08-06T06:07:36;2.30;;;2.10;;
10904;SDS011;5505;51.450;9.254;2023-08-06T06:10:22;2.47;;;2.30;;
10904;SDS011;5505;51.450;9.254;2023-08-06T06:13:09;2.50;;;2.30;;
10904;SDS011;5505;51.450;9.254;2023-08-06T06:15:56;3.40;;;2.47;;
10904;SDS011;5505;51.450;9.254;2023-08-06T06:18:43;2.53;;;2.33;;
10904;SDS011;5505;51.450;9.254;2023-08-06T06:21:30;2.87;;;2.43;;
10904;SDS011;5505;51.450;9.254;2023-08-06T06:24:18;2.23;;;2.03;;
10904;SDS011;5505;51.450;9.254;2023-08-06T06:27:04;4.17;;;2.40;;
10904;SDS011;5505;51.450;9.254;2023-08-06T06:29:51;5.20;;;2.37;;
10904;SDS011;5505;51.450;9.254;2023-08-06T06:32:39;3.53;;;2.50;;
10904;SDS011;5505;51.450;9.254;2023-08-06T06:35:26;3.50;;;2.07;;
10904;SDS011;5505;51.450;9.254;2023-08-06T06:38:13;2.63;;;2.00;;
10904;SDS011;5505;51.450;9.254;2023-08-06T06:41:01;2.20;;;2.10;;
10904;SDS011;5505;51.450;9.254;2023-08-06T06:43:48;4.27;;;2.00;;
10904;SDS011;5505;51.450;9.254;2023-08-06T06:46:35;2.57;;;2.00;;
10904;SDS011;5505;51.450;9.254;2023-08-06T06:49:22;7.10;;;2.10;;
10904;SDS011;5505;51.450;9.254;2023-08-06T06:52:08;2.10;;;2.00;;
10904;SDS011;5505;51.450;9.254;2023-08-06T06:54:56;2.20;;;2.00;;
10904;SDS011;5505;51.450;9.254;2023-08-06T06:57:44;2.80;;;2.23;;
10904;SDS011;5505;51.450;9.254;2023-08-06T07:00:31;2.17;;;1.70;;
10904;SDS011;5505;51.450;9.254;2023-08-06T07:03:19;2.03;;;1.80;;
10904;SDS011;5505;51.450;9.254;2023-08-06T07:06:06;2.17;;;1.97;;
10904;SDS011;5505;51.450;9.254;2023-08-06T07:08:53;2.03;;;1.90;;
10904;SDS011;5505;51.450;9.254;2023-08-06T07:11:40;3.03;;;2.00;;
10904;SDS011;5505;51.450;9.254;2023-08-06T07:14:30;2.10;;;1.83;;
10904;SDS011;5505;51.450;9.254;2023-08-06T07:17:16;3.40;;;1.87;;
10904;SDS011;5505;51.450;9.254;2023-08-06T07:20:04;3.00;;;1.60;;
10904;SDS011;5505;51.450;9.254;2023-08-06T07:22:53;3.00;;;1.87;;
10904;SDS011;5505;51.450;9.254;2023-08-06T07:25:40;2.33;;;1.70;;
10904;SDS011;5505;51.450;9.254;2023-08-06T07:28:27;1.90;;;1.80;;
10904;SDS011;5505;51.450;9.254;2023-08-06T07:31:15;3.33;;;2.10;;
10904;SDS011;5505;51.450;9.254;2023-08-06T07:34:02;1.87;;;1.77;;
10904;SDS011;5505;51.450;9.254;2023-08-06T07:36:49;4.43;;;1.83;;
10904;SDS011;5505;51.450;9.254;2023-08-06T07:39:36;2.03;;;1.80;;
10904;SDS011;5505;51.450;9.254;2023-08-06T07:42:24;2.60;;;1.53;;
10904;SDS011;5505;51.450;9.254;2023-08-06T07:45:11;2.90;;;1.80;;
10904;SDS011;5505;51.450;9.254;2023-08-06T07:47:59;2.23;;;1.53;;
10904;SDS011;5505;51.450;9.254;2023-08-06T07:50:46;3.43;;;1.93;;
10904;SDS011;5505;51.450;9.254;2023-08-06T07:53:36;2.53;;;1.40;;
10904;SDS011;5505;51.450;9.254;2023-08-06T07:56:23;3.10;;;1.50;;
10904;SDS011;5505;51.450;9.254;2023-08-06T07:59:10;2.20;;;1.37;;
10904;SDS011;5505;51.450;9.254;2023-08-06T08:01:57;3.37;;;1.60;;
10904;SDS011;5505;51.450;9.254;2023-08-06T08:04:45;2.80;;;1.60;;
10904;SDS011;5505;51.450;9.254;2023-08-06T08:07:32;2.67;;;1.53;;
10904;SDS011;5505;51.450;9.254;2023-08-06T08:10:19;2.27;;;1.40;;
10904;SDS011;5505;51.450;9.254;2023-08-06T08:13:06;1.73;;;1.50;;
10904;SDS011;5505;51.450;9.254;2023-08-06T08:15:57;3.00;;;1.30;;
10904;SDS011;5505;51.450;9.254;2023-08-06T08:18:44;1.53;;;1.20;;
10904;SDS011;5505;51.450;9.254;2023-08-06T08:21:32;2.23;;;1.40;;
10904;SDS011;5505;51.450;9.254;2023-08-06T08:24:19;1.53;;;1.43;;
10904;SDS011;5505;51.450;9.254;2023-08-06T08:27:08;2.17;;;1.20;;
10904;SDS011;5505;51.450;9.254;2023-08-06T08:29:55;2.00;;;1.60;;
10904;SDS011;5505;51.450;9.254;2023-08-06T08:32:42;2.27;;;1.47;;
10904;SDS011;5505;51.450;9.254;2023-08-06T08:35:29;1.87;;;1.50;;
10904;SDS011;5505;51.450;9.254;2023-08-06T08:38:17;2.00;;;1.37;;
10904;SDS011;5505;51.450;9.254;2023-08-06T08:41:04;1.50;;;1.33;;
10904;SDS011;5505;51.450;9.254;2023-08-06T08:43:51;1.50;;;1.40;;
10904;SDS011;5505;51.450;9.254;2023-08-06T08:46:40;1.40;;;1.30;;
10904;SDS011;5505;51.450;9.254;2023-08-06T08:49:28;1.60;;;1.20;;
10904;SDS011;5505;51.450;9.254;2023-08-06T08:52:16;1.50;;;1.40;;
10904;SDS011;5505;51.450;9.254;2023-08-06T08:55:08;1.40;;;1.03;;
10904;SDS011;5505;51.450;9.254;2023-08-06T08:57:55;1.27;;;1.00;;
10904;SDS011;5505;51.450;9.254;2023-08-06T09:00:42;1.63;;;1.30;;
10904;SDS011;5505;51.450;9.254;2023-08-06T09:03:29;0.80;;;0.80;;
10904;SDS011;5505;51.450;9.254;2023-08-06T09:06:17;0.90;;;0.90;;
10904;SDS011;5505;51.450;9.254;2023-08-06T09:09:06;1.10;;;1.00;;
10904;SDS011;5505;51.450;9.254;2023-08-06T09:11:58;4.33;;;1.07;;
10904;SDS011;5505;51.450;9.254;2023-08-06T09:14:47;1.20;;;1.10;;
10904;SDS011;5505;51.450;9.254;2023-08-06T09:17:33;3.47;;;1.03;;
10904;SDS011;5505;51.450;9.254;2023-08-06T09:20:20;1.40;;;1.00;;
10904;SDS011;5505;51.450;9.254;2023-08-06T09:23:07;1.67;;;1.20;;
10904;SDS011;5505;51.450;9.254;2023-08-06T09:25:55;1.33;;;1.13;;
10904;SDS011;5505;51.450;9.254;2023-08-06T09:28:44;1.60;;;1.10;;
10904;SDS011;5505;51.450;9.254;2023-08-06T09:31:32;2.43;;;1.20;;
10904;SDS011;5505;51.450;9.254;2023-08-06T09:34:20;2.90;;;1.27;;
10904;SDS011;5505;51.450;9.254;2023-08-06T09:37:09;1.80;;;1.00;;
10904;SDS011;5505;51.450;9.254;2023-08-06T09:39:56;1.03;;;0.93;;
10904;SDS011;5505;51.450;9.254;2023-08-06T09:42:43;1.20;;;1.00;;
10904;SDS011;5505;51.450;9.254;2023-08-06T09:45:32;2.53;;;0.90;;
10904;SDS011;5505;51.450;9.254;2023-08-06T09:48:19;1.20;;;1.00;;
10904;SDS011;5505;51.450;9.254;2023-08-06T09:51:11;1.00;;;0.80;;
10904;SDS011;5505;51.450;9.254;2023-08-06T09:54:00;1.10;;;1.00;;
10904;SDS011;5505;51.450;9.254;2023-08-06T09:56:47;0.90;;;0.90;;
10904;SDS011;5505;51.450;9.254;2023-08-06T09:59:34;1.30;;;1.03;;
10904;SDS011;5505;51.450;9.254;2023-08-06T10:02:24;1.73;;;1.10;;
10904;SDS011;5505;51.450;9.254;2023-08-06T10:05:13;3.57;;;1.17;;
10904;SDS011;5505;51.450;9.254;2023-08-06T10:08:00;1.83;;;0.90;;
10904;SDS011;5505;51.450;9.254;2023-08-06T10:10:49;1.00;;;0.80;;
10904;SDS011;5505;51.450;9.254;2023-08-06T10:13:37;2.27;;;0.90;;
10904;SDS011;5505;51.450;9.254;2023-08-06T10:16:25;1.07;;;1.03;;
10904;SDS011;5505;51.450;9.254;2023-08-06T10:19:13;0.80;;;0.80;;
10904;SDS011;5505;51.450;9.254;2023-08-06T10:22:12;1.13;;;1.00;;
10904;SDS011;5505;51.450;9.254;2023-08-06T10:25:00;1.47;;;1.00;;
10904;SDS011;5505;51.450;9.254;2023-08-06T10:27:53;1.70;;;1.02;;
10904;SDS011;5505;51.450;9.254;2023-08-06T10:30:41;1.37;;;0.93;;
10904;SDS011;5505;51.450;9.254;2023-08-06T10:33:39;2.30;;;1.00;;
10904;SDS011;5505;51.450;9.254;2023-08-06T10:36:29;1.27;;;0.80;;
10904;SDS011;5505;51.450;9.254;2023-08-06T10:39:18;1.43;;;0.93;;
10904;SDS011;5505;51.450;9.254;2023-08-06T10:42:04;0.90;;;0.90;;
10904;SDS011;5505;51.450;9.254;2023-08-06T10:47:58;1.50;;;1.03;;
10904;SDS011;5505;51.450;9.254;2023-08-06T10:50:44;3.20;;;1.33;;
10904;SDS011;5505;51.450;9.254;2023-08-06T10:53:33;1.40;;;1.10;;
10904;SDS011;5505;51.450;9.254;2023-08-06T10:56:20;2.70;;;1.00;;
10904;SDS011;5505;51.450;9.254;2023-08-06T10:59:08;1.83;;;1.07;;
10904;SDS011;5505;51.450;9.254;2023-08-06T11:01:55;2.20;;;1.07;;
10904;SDS011;5505;51.450;9.254;2023-08-06T11:04:43;2.50;;;1.00;;
10904;SDS011;5505;51.450;9.254;2023-08-06T11:07:30;0.87;;;0.70;;
10904;SDS011;5505;51.450;9.254;2023-08-06T11:10:18;1.10;;;0.97;;
10904;SDS011;5505;51.450;9.254;2023-08-06T11:13:05;1.57;;;1.00;;
10904;SDS011;5505;51.450;9.254;2023-08-06T11:15:52;1.57;;;1.00;;
10904;SDS011;5505;51.450;9.254;2023-08-06T11:18:39;1.43;;;1.00;;
10904;SDS011;5505;51.450;9.254;2023-08-06T11:21:27;2.60;;;1.10;;
10904;SDS011;5505;51.450;9.254;2023-08-06T11:24:14;1.17;;;1.00;;
10904;SDS011;5505;51.450;9.254;2023-08-06T11:27:02;1.50;;;1.30;;
10904;SDS011;5505;51.450;9.254;2023-08-06T11:29:56;1.07;;;0.80;;
10904;SDS011;5505;51.450;9.254;2023-08-06T11:32:47;1.90;;;0.97;;
10904;SDS011;5505;51.450;9.254;2023-08-06T11:35:34;2.67;;;1.10;;
10904;SDS011;5505;51.450;9.254;2023-08-06T11:38:22;1.83;;;0.93;;
10904;SDS011;5505;51.450;9.254;2023-08-06T11:41:11;1.70;;;1.00;;
10904;SDS011;5505;51.450;9.254;2023-08-06T11:44:00;1.77;;;1.00;;
10904;SDS011;5505;51.450;9.254;2023-08-06T11:46:50;1.93;;;0.97;;
10904;SDS011;5505;51.450;9.254;2023-08-06T11:49:39;1.60;;;0.93;;
10904;SDS011;5505;51.450;9.254;2023-08-06T11:52:29;2.57;;;1.20;;
10904;SDS011;5505;51.450;9.254;2023-08-06T11:55:15;1.20;;;1.07;;
10904;SDS011;5505;51.450;9.254;2023-08-06T11:58:03;1.20;;;0.77;;
10904;SDS011;5505;51.450;9.254;2023-08-06T12:00:52;4.73;;;1.23;;
10904;SDS011;5505;51.450;9.254;2023-08-06T12:03:41;1.83;;;1.07;;
10904;SDS011;5505;51.450;9.254;2023-08-06T12:06:28;3.23;;;1.30;;
10904;SDS011;5505;51.450;9.254;2023-08-06T12:09:15;2.37;;;1.20;;
10904;SDS011;5505;51.450;9.254;2023-08-06T12:12:01;1.17;;;1.07;;
10904;SDS011;5505;51.450;9.254;2023-08-06T12:14:49;2.90;;;1.00;;
10904;SDS011;5505;51.450;9.254;2023-08-06T12:17:37;1.13;;;0.90;;
10904;SDS011;5505;51.450;9.254;2023-08-06T12:20:24;1.63;;;1.03;;
10904;SDS011;5505;51.450;9.254;2023-08-06T12:23:12;0.93;;;0.67;;
10904;SDS011;5505;51.450;9.254;2023-08-06T12:26:00;2.10;;;0.70;;
10904;SDS011;5505;51.450;9.254;2023-08-06T12:28:47;1.37;;;0.67;;
10904;SDS011;5505;51.450;9.254;2023-08-06T12:31:34;0.77;;;0.77;;
10904;SDS011;5505;51.450;9.254;2023-08-06T12:34:22;1.43;;;0.73;;
10904;SDS011;5505;51.450;9.254;2023-08-06T12:37:09;1.03;;;0.70;;
10904;SDS011;5505;51.450;9.254;2023-08-06T12:39:56;0.73;;;0.73;;
10904;SDS011;5505;51.450;9.254;2023-08-06T12:42:43;0.80;;;0.80;;
10904;SDS011;5505;51.450;9.254;2023-08-06T12:45:30;1.27;;;0.80;;
10904;SDS011;5505;51.450;9.254;2023-08-06T12:48:16;2.53;;;0.93;;
10904;SDS011;5505;51.450;9.254;2023-08-06T12:51:05;0.47;;;0.40;;
10904;SDS011;5505;51.450;9.254;2023-08-06T12:53:52;0.70;;;0.67;;
10904;SDS011;5505;51.450;9.254;2023-08-06T12:56:39;1.83;;;0.70;;
10904;SDS011;5505;51.450;9.254;2023-08-06T12:59:25;1.27;;;0.80;;
10904;SDS011;5505;51.450;9.254;2023-08-06T13:02:12;1.77;;;0.60;;
10904;SDS011;5505;51.450;9.254;2023-08-06T13:04:59;2.07;;;0.80;;
10904;SDS011;5505;51.450;9.254;2023-08-06T13:07:49;5.07;;;1.10;;
10904;SDS011;5505;51.450;9.254;2023-08-06T13:10:36;1.47;;;0.77;;
10904;SDS011;5505;51.450;9.254;2023-08-06T13:13:23;1.33;;;0.90;;
10904;SDS011;5505;51.450;9.254;2023-08-06T13:16:12;1.17;;;0.90;;
10904;SDS011;5505;51.450;9.254;2023-08-06T13:18:58;2.00;;;1.00;;
10904;SDS011;5505;51.450;9.254;2023-08-06T13:21:58;1.83;;;0.90;;
10904;SDS011;5505;51.450;9.254;2023-08-06T13:24:48;3.50;;;1.20;;
10904;SDS011;5505;51.450;9.254;2023-08-06T13:27:35;3.70;;;1.20;;
10904;SDS011;5505;51.450;9.254;2023-08-06T13:30:22;3.20;;;1.07;;
10904;SDS011;5505;51.450;9.254;2023-08-06T13:33:09;3.77;;;1.00;;
10904;SDS011;5505;51.450;9.254;2023-08-06T13:35:56;4.53;;;1.10;;
10904;SDS011;5505;51.450;9.254;2023-08-06T13:38:43;2.40;;;0.80;;
10904;SDS011;5505;51.450;9.254;2023-08-06T13:41:31;2.57;;;1.37;;
10904;SDS011;5505;51.450;9.254;2023-08-06T13:44:18;3.97;;;1.43;;
10904;SDS011;5505;51.450;9.254;2023-08-06T13:47:05;6.53;;;1.60;;
10904;SDS011;5505;51.450;9.254;2023-08-06T13:49:52;5.20;;;1.40;;
10904;SDS011;5505;51.450;9.254;2023-08-06T13:52:39;4.47;;;1.53;;
10904;SDS011;5505;51.450;9.254;2023-08-06T13:55:25;4.60;;;1.43;;
10904;SDS011;5505;51.450;9.254;2023-08-06T13:58:14;1.80;;;1.20;;
10904;SDS011;5505;51.450;9.254;2023-08-06T14:01:01;1.67;;;1.27;;
10904;SDS011;5505;51.450;9.254;2023-08-06T14:03:48;1.90;;;1.53;;
10904;SDS011;5505;51.450;9.254;2023-08-06T14:06:34;1.73;;;1.50;;
10904;SDS011;5505;51.450;9.254;2023-08-06T14:09:21;2.30;;;1.10;;
10904;SDS011;5505;51.450;9.254;2023-08-06T14:12:08;2.20;;;1.03;;
10904;SDS011;5505;51.450;9.254;2023-08-06T14:14:56;2.10;;;1.20;;
10904;SDS011;5505;51.450;9.254;2023-08-06T14:17:44;1.70;;;1.03;;
10904;SDS011;5505;51.450;9.254;2023-08-06T14:20:30;2.03;;;0.87;;
10904;SDS011;5505;51.450;9.254;2023-08-06T14:23:17;1.63;;;0.90;;
10904;SDS011;5505;51.450;9.254;2023-08-06T14:26:04;1.20;;;1.03;;
10904;SDS011;5505;51.450;9.254;2023-08-06T14:28:51;1.53;;;1.20;;
10904;SDS011;5505;51.450;9.254;2023-08-06T14:31:40;2.27;;;1.10;;
10904;SDS011;5505;51.450;9.254;2023-08-06T14:34:27;1.37;;;1.17;;
10904;SDS011;5505;51.450;9.254;2023-08-06T14:37:14;1.03;;;0.73;;
10904;SDS011;5505;51.450;9.254;2023-08-06T14:40:01;1.10;;;1.00;;
10904;SDS011;5505;51.450;9.254;2023-08-06T14:42:48;1.23;;;1.00;;
10904;SDS011;5505;51.450;9.254;2023-08-06T14:45:37;3.00;;;1.40;;
10904;SDS011;5505;51.450;9.254;2023-08-06T14:48:26;1.13;;;1.07;;
10904;SDS011;5505;51.450;9.254;2023-08-06T14:51:13;1.20;;;1.10;;
10904;SDS011;5505;51.450;9.254;2023-08-06T14:54:00;1.00;;;0.90;;
10904;SDS011;5505;51.450;9.254;2023-08-06T14:56:46;1.20;;;1.10;;
10904;SDS011;5505;51.450;9.254;2023-08-06T14:59:33;1.27;;;0.90;;
10904;SDS011;5505;51.450;9.254;2023-08-06T15:02:20;2.27;;;1.30;;
10904;SDS011;5505;51.450;9.254;2023-08-06T15:05:08;1.20;;;1.03;;
10904;SDS011;5505;51.450;9.254;2023-08-06T15:07:55;3.40;;;1.03;;
10904;SDS011;5505;51.450;9.254;2023-08-06T15:10:42;1.80;;;0.93;;
10904;SDS011;5505;51.450;9.254;2023-08-06T15:13:29;1.40;;;0.90;;
10904;SDS011;5505;51.450;9.254;2023-08-06T15:16:16;3.03;;;0.90;;
10904;SDS011;5505;51.450;9.254;2023-08-06T15:19:02;2.20;;;0.60;;
10904;SDS011;5505;51.450;9.254;2023-08-06T15:21:50;1.47;;;0.87;;
10904;SDS011;5505;51.450;9.254;2023-08-06T15:24:37;1.27;;;0.87;;
10904;SDS011;5505;51.450;9.254;2023-08-06T15:27:27;1.07;;;1.00;;
10904;SDS011;5505;51.450;9.254;2023-08-06T15:30:14;6.27;;;1.00;;
10904;SDS011;5505;51.450;9.254;2023-08-06T15:33:01;0.73;;;0.73;;
10904;SDS011;5505;51.450;9.254;2023-08-06T15:35:48;0.87;;;0.67;;
10904;SDS011;5505;51.450;9.254;2023-08-06T15:38:36;0.70;;;0.60;;
10904;SDS011;5505;51.450;9.254;2023-08-06T15:41:23;0.50;;;0.50;;
10904;SDS011;5505;51.450;9.254;2023-08-06T15:44:10;1.00;;;0.70;;
10904;SDS011;5505;51.450;9.254;2023-08-06T15:46:57;0.67;;;0.50;;
10904;SDS011;5505;51.450;9.254;2023-08-06T15:49:44;1.97;;;1.00;;
10904;SDS011;5505;51.450;9.254;2023-08-06T15:52:30;1.57;;;1.17;;
10904;SDS011;5505;51.450;9.254;2023-08-06T15:55:18;1.73;;;1.60;;
10904;SDS011;5505;51.450;9.254;2023-08-06T15:58:05;2.63;;;2.43;;
10904;SDS011;5505;51.450;9.254;2023-08-06T16:00:52;2.70;;;1.60;;
10904;SDS011;5505;51.450;9.254;2023-08-06T16:03:39;1.43;;;1.13;;
10904;SDS011;5505;51.450;9.254;2023-08-06T16:06:28;1.30;;;1.20;;
10904;SDS011;5505;51.450;9.254;2023-08-06T16:09:14;1.87;;;0.90;;
10904;SDS011;5505;51.450;9.254;2023-08-06T16:12:03;1.07;;;0.80;;
10904;SDS011;5505;51.450;9.254;2023-08-06T16:14:50;1.37;;;0.90;;
10904;SDS011;5505;51.450;9.254;2023-08-06T16:17:37;1.87;;;1.10;;
10904;SDS011;5505;51.450;9.254;2023-08-06T16:20:24;1.10;;;1.10;;
10904;SDS011;5505;51.450;9.254;2023-08-06T16:23:11;1.83;;;1.20;;
10904;SDS011;5505;51.450;9.254;2023-08-06T16:25:58;1.87;;;1.57;;
10904;SDS011;5505;51.450;9.254;2023-08-06T16:28:46;2.77;;;1.53;;
10904;SDS011;5505;51.450;9.254;2023-08-06T16:31:33;3.20;;;1.37;;
10904;SDS011;5505;51.450;9.254;2023-08-06T16:34:20;2.10;;;1.03;;
10904;SDS011;5505;51.450;9.254;2023-08-06T16:37:06;2.73;;;1.00;;
10904;SDS011;5505;51.450;9.254;2023-08-06T16:39:55;1.47;;;0.93;;
10904;SDS011;5505;51.450;9.254;2023-08-06T16:42:42;1.97;;;0.90;;
10904;SDS011;5505;51.450;9.254;2023-08-06T16:45:30;2.30;;;0.70;;
10904;SDS011;5505;51.450;9.254;2023-08-06T16:48:22;0.80;;;0.80;;
10904;SDS011;5505;51.450;9.254;2023-08-06T16:51:11;2.50;;;0.50;;
10904;SDS011;5505;51.450;9.254;2023-08-06T16:54:01;0.80;;;0.50;;
10904;SDS011;5505;51.450;9.254;2023-08-06T16:56:47;2.30;;;0.57;;
10904;SDS011;5505;51.450;9.254;2023-08-06T16:59:34;0.60;;;0.60;;
10904;SDS011;5505;51.450;9.254;2023-08-06T17:02:22;0.60;;;0.60;;
10904;SDS011;5505;51.450;9.254;2023-08-06T17:05:09;1.47;;;0.67;;
10904;SDS011;5505;51.450;9.254;2023-08-06T17:07:56;1.10;;;1.00;;